Milwaukee, Wisconsin
Traffic Map
Current Weather Conditions
Milwaukee, Wisconsin
Few Clouds
Few Clouds
35°
Feels Like: 27°
Wind Chill: 27° Ceiling: Unl
Heat Index: 35° Visibility: 10mi
Dew Point: 28° Wind: 10mph
Humidity: 76% Direction: 60° (ENE)
Pressure: 30.4in Gusts: 0mph
Raw Report DataKMKE 190752Z 06009KT 10SM FEW250 02/M02 A3040 RMK AO2 SLP303 T00171022
Traffic Incident Summary
Active as of:
Severity:
Category:
InformationThere was an issue retrieving the traffic information for this location. Please try a different location or try again shortly.
Advertisements
At Last! Intellicast now available for iPhone and Android